Time;durP1;ratioP1;P1;durP2;ratioP2;P2;SDS_P1;SDS_P2;PMS_P1;PMS_P2;Temp;Humidity;BMP_temperature;BMP_pressure;BME280_temperature;BME280_humidity;BME280_pressure;Samples;Min_cycle;Max_cycle;Signal;HPM_P1;HPM_P2
2021/08/22 00:01:48;;;;;;;11.63;10.30;;;18.40;1.00;;;;;;5054917;28;20272;-59
2021/08/22 00:04:14;;;;;;;13.93;11.17;;;18.30;1.00;;;;;;5054834;28;20206;-62
2021/08/22 00:06:41;;;;;;;17.47;10.53;;;18.30;1.00;;;;;;5054701;28;20206;-61
2021/08/22 00:09:07;;;;;;;13.73;10.70;;;18.20;9.60;;;;;;5054882;28;20210;-60
2021/08/22 00:11:34;;;;;;;14.03;10.53;;;18.30;20.80;;;;;;5054569;28;20707;-62
2021/08/22 00:14:01;;;;;;;15.73;11.43;;;18.30;39.30;;;;;;5054675;28;20637;-60
2021/08/22 00:16:27;;;;;;;12.20;10.53;;;18.20;76.40;;;;;;5054554;28;20256;-61
2021/08/22 00:18:55;;;;;;;12.30;10.00;;;18.20;99.80;;;;;;5054484;28;20255;-61
2021/08/22 00:21:22;;;;;;;12.20;10.20;;;18.10;99.90;;;;;;5054113;28;20225;-62
2021/08/22 00:23:49;;;;;;;13.87;10.90;;;18.10;99.90;;;;;;5054284;28;20210;-62
2021/08/22 00:26:15;;;;;;;17.23;12.00;;;18.10;99.90;;;;;;5054454;28;20210;-61
2021/08/22 00:28:42;;;;;;;12.87;10.53;;;18.10;99.90;;;;;;5054457;28;20210;-62
2021/08/22 00:31:08;;;;;;;16.33;11.50;;;18.00;99.90;;;;;;5054183;28;20230;-61
2021/08/22 00:33:35;;;;;;;14.57;10.97;;;18.00;99.90;;;;;;5054051;28;20626;-61
2021/08/22 00:36:03;;;;;;;13.67;10.53;;;18.00;99.90;;;;;;5054041;28;20206;-62
2021/08/22 00:38:32;;;;;;;13.10;10.17;;;17.90;99.90;;;;;;5054261;28;20213;-61
2021/08/22 00:40:59;;;;;;;13.80;10.63;;;17.90;99.90;;;;;;5054230;28;20206;-61
2021/08/22 00:43:27;;;;;;;11.13;9.30;;;17.80;99.90;;;;;;5054151;28;20212;-61
2021/08/22 00:45:54;;;;;;;12.70;9.60;;;17.80;99.90;;;;;;5054093;28;20209;-61
2021/08/22 00:48:21;;;;;;;10.47;9.37;;;17.80;99.90;;;;;;5053863;28;20293;-61
2021/08/22 00:50:49;;;;;;;10.80;9.60;;;17.70;99.90;;;;;;5053591;28;20282;-61
2021/08/22 00:53:18;;;;;;;9.90;8.83;;;17.80;99.90;;;;;;5053938;28;20206;-61
2021/08/22 00:55:44;;;;;;;8.83;7.53;;;17.70;99.90;;;;;;5053872;28;20260;-61
2021/08/22 00:58:11;;;;;;;8.67;7.23;;;17.60;99.90;;;;;;5053708;28;20666;-61
2021/08/22 01:00:38;;;;;;;7.57;6.57;;;17.60;99.90;;;;;;5053966;28;20198;-61
2021/08/22 01:03:14;;;;;;;7.67;6.30;;;17.50;99.90;;;;;;5053529;28;20256;-61
2021/08/22 01:05:46;;;;;;;8.03;6.03;;;17.60;99.90;;;;;;5053735;28;20228;-62
2021/08/22 01:08:20;;;;;;;8.13;6.37;;;17.60;99.90;;;;;;5052981;28;20267;-61
2021/08/22 01:10:48;;;;;;;7.37;5.63;;;17.50;99.90;;;;;;5053356;28;20225;-61
2021/08/22 01:13:20;;;;;;;6.43;5.73;;;17.50;99.90;;;;;;5053771;28;20263;-59
2021/08/22 01:15:50;;;;;;;7.13;5.13;;;17.50;99.90;;;;;;5053175;28;20257;-61
2021/08/22 01:18:20;;;;;;;6.80;5.03;;;17.40;99.90;;;;;;5053651;28;20205;-61
2021/08/22 01:20:55;;;;;;;7.77;5.30;;;17.40;99.90;;;;;;5053120;28;20675;-61
2021/08/22 01:23:24;;;;;;;10.10;6.33;;;17.40;99.90;;;;;;5053307;28;20213;-60
2021/08/22 01:25:53;;;;;;;7.97;5.90;;;17.40;99.90;;;;;;5053283;28;20202;-61
2021/08/22 01:28:20;;;;;;;9.83;5.80;;;17.30;99.90;;;;;;5053084;28;20275;-61
2021/08/22 01:30:49;;;;;;;7.47;5.13;;;17.30;99.90;;;;;;5053055;28;20283;-61
2021/08/22 01:33:18;;;;;;;5.80;5.13;;;17.30;99.90;;;;;;5053382;28;20206;-61
2021/08/22 01:35:46;;;;;;;5.67;4.70;;;17.30;99.90;;;;;;5053012;28;20206;-61
2021/08/22 01:38:14;;;;;;;4.40;4.00;;;17.20;99.90;;;;;;5053352;28;20206;-61
2021/08/22 01:40:42;;;;;;;4.97;4.20;;;17.20;99.90;;;;;;5052928;28;20261;-61
2021/08/22 01:43:11;;;;;;;5.27;4.17;;;17.10;99.90;;;;;;5053205;28;20663;-61
2021/08/22 01:45:39;;;;;;;4.77;4.20;;;17.00;99.90;;;;;;5053006;28;20255;-61
2021/08/22 01:48:07;;;;;;;5.80;4.43;;;16.90;99.90;;;;;;5052836;28;20251;-61
2021/08/22 01:50:35;;;;;;;4.60;3.87;;;16.90;99.90;;;;;;5052752;28;20221;-61
2021/08/22 01:53:05;;;;;;;5.27;3.83;;;16.90;99.90;;;;;;5052407;28;20710;-61
2021/08/22 01:55:32;;;;;;;4.67;3.70;;;16.90;99.90;;;;;;5052746;28;20209;-61
2021/08/22 01:57:59;;;;;;;5.67;3.90;;;16.80;99.90;;;;;;5052870;28;20258;-62
2021/08/22 02:00:25;;;;;;;5.67;4.20;;;16.70;99.90;;;;;;5052955;28;20202;-62
2021/08/22 02:02:57;;;;;;;5.53;3.80;;;16.70;99.90;;;;;;5052573;28;20221;-60
2021/08/22 02:05:24;;;;;;;6.30;4.10;;;16.70;99.90;;;;;;5052825;28;20210;-62
2021/08/22 02:07:53;;;;;;;5.97;3.90;;;16.60;99.90;;;;;;5052505;28;20271;-61
2021/08/22 02:10:25;;;;;;;4.20;3.60;;;16.70;99.90;;;;;;5052717;28;20201;-61
2021/08/22 02:12:55;;;;;;;5.83;3.80;;;16.60;99.90;;;;;;5052421;28;20230;-62
2021/08/22 02:15:28;;;;;;;4.77;3.60;;;16.60;99.90;;;;;;5052162;28;20847;-61
2021/08/22 02:17:59;;;;;;;4.00;3.43;;;16.60;99.90;;;;;;5052366;28;20729;-61
2021/08/22 02:20:27;;;;;;;4.30;3.47;;;16.60;99.90;;;;;;5051983;28;20227;-61
2021/08/22 02:22:56;;;;;;;3.40;3.00;;;16.60;99.90;;;;;;5052320;28;20226;-62
2021/08/22 02:25:23;;;;;;;4.03;3.30;;;16.60;99.90;;;;;;5052047;28;20210;-61
2021/08/22 02:27:50;;;;;;;5.90;3.50;;;16.50;99.90;;;;;;5052316;28;20202;-61
2021/08/22 02:30:16;;;;;;;4.67;3.80;;;16.50;99.90;;;;;;5051894;28;20751;-60
2021/08/22 02:32:43;;;;;;;5.17;4.07;;;16.40;99.90;;;;;;5051890;28;20222;-61
2021/08/22 02:35:10;;;;;;;6.73;3.93;;;16.40;99.90;;;;;;5051686;28;20618;-61
2021/08/22 02:37:37;;;;;;;5.03;4.33;;;16.40;99.90;;;;;;5052280;28;20257;-61
2021/08/22 02:40:06;;;;;;;6.57;4.70;;;16.30;99.90;;;;;;5051960;28;20672;-60
2021/08/22 02:42:33;;;;;;;6.90;4.70;;;16.40;99.90;;;;;;5051805;28;20226;-61
2021/08/22 02:45:01;;;;;;;6.73;4.87;;;16.30;99.90;;;;;;5051737;28;20205;-61
2021/08/22 02:47:27;;;;;;;6.43;4.60;;;16.40;99.90;;;;;;5051812;28;20255;-62
2021/08/22 02:49:54;;;;;;;5.37;4.87;;;16.30;99.90;;;;;;5051881;28;20617;-61
2021/08/22 02:52:21;;;;;;;5.63;4.73;;;16.30;99.90;;;;;;5051913;28;20600;-60
2021/08/22 02:54:47;;;;;;;7.30;5.00;;;16.40;99.90;;;;;;5051752;28;20253;-60
2021/08/22 02:57:18;;;;;;;7.07;5.33;;;16.40;99.90;;;;;;5051752;28;20259;-61
2021/08/22 02:59:45;;;;;;;6.23;4.93;;;16.50;99.90;;;;;;5051913;28;20206;-59
2021/08/22 03:02:12;;;;;;;6.47;5.30;;;16.50;99.90;;;;;;5051545;28;20750;-62
2021/08/22 03:04:39;;;;;;;8.20;5.83;;;16.60;99.90;;;;;;5051562;28;20251;-60
2021/08/22 03:07:05;;;;;;;7.77;5.40;;;16.60;99.90;;;;;;5051776;28;20206;-61
2021/08/22 03:09:32;;;;;;;8.13;6.47;;;16.70;99.90;;;;;;5051821;28;20213;-62
2021/08/22 03:11:59;;;;;;;9.77;6.97;;;16.70;99.90;;;;;;5051470;28;20235;-61
2021/08/22 03:14:27;;;;;;;10.57;7.27;;;16.70;99.90;;;;;;5051391;28;20251;-60
2021/08/22 03:16:53;;;;;;;10.53;7.20;;;16.70;99.90;;;;;;5051701;28;20201;-59
2021/08/22 03:19:20;;;;;;;10.77;7.63;;;16.80;99.90;;;;;;5051762;28;20263;-61
2021/08/22 03:21:47;;;;;;;16.47;9.53;;;16.80;99.90;;;;;;5051506;28;20221;-61
2021/08/22 03:24:14;;;;;;;15.77;9.57;;;16.80;99.90;;;;;;5051554;28;20287;-58
2021/08/22 03:26:41;;;;;;;15.33;10.40;;;16.90;99.90;;;;;;5051420;28;20256;-60
2021/08/22 03:29:08;;;;;;;14.57;11.73;;;16.90;99.90;;;;;;5051633;28;20654;-60
2021/08/22 03:31:36;;;;;;;14.57;11.20;;;16.90;99.90;;;;;;5052966;28;20275;-61
2021/08/22 03:34:03;;;;;;;15.77;10.73;;;16.90;99.90;;;;;;5055234;28;20201;-61
2021/08/22 03:36:30;;;;;;;15.33;10.87;;;16.90;99.90;;;;;;5055432;28;20611;-61
2021/08/22 03:38:56;;;;;;;13.97;10.93;;;17.00;99.90;;;;;;5055344;28;20209;-61
2021/08/22 03:41:23;;;;;;;14.77;12.03;;;17.00;99.90;;;;;;5055133;28;20275;-60
2021/08/22 03:43:49;;;;;;;15.97;12.60;;;17.00;99.90;;;;;;5055492;28;20604;-62
2021/08/22 03:46:16;;;;;;;16.97;13.03;;;17.10;99.90;;;;;;5055346;28;20236;-61
2021/08/22 03:48:44;;;;;;;16.03;12.80;;;17.10;99.90;;;;;;5055093;28;20206;-61
2021/08/22 03:51:10;;;;;;;15.60;12.63;;;17.10;99.90;;;;;;5054899;28;20230;-60
2021/08/22 03:53:37;;;;;;;15.80;13.67;;;17.10;99.90;;;;;;5054854;28;20209;-61
2021/08/22 03:56:04;;;;;;;17.87;14.10;;;17.10;99.90;;;;;;5054920;28;20622;-61
2021/08/22 03:58:31;;;;;;;17.13;13.63;;;17.10;99.90;;;;;;5055136;28;20212;-62
2021/08/22 04:00:57;;;;;;;21.50;16.90;;;17.20;99.90;;;;;;5054941;28;20206;-61
2021/08/22 04:03:24;;;;;;;19.60;16.80;;;17.10;99.90;;;;;;5055118;28;20252;-62
2021/08/22 04:05:52;;;;;;;26.43;18.27;;;17.10;99.90;;;;;;5054804;28;20236;-61
2021/08/22 04:08:23;;;;;;;24.03;17.80;;;17.10;99.90;;;;;;5054923;28;20201;-61
2021/08/22 04:10:50;;;;;;;24.43;17.47;;;17.20;99.90;;;;;;5054559;28;20312;-61
2021/08/22 04:13:16;;;;;;;20.50;16.73;;;17.20;99.90;;;;;;5054866;28;20614;-60
2021/08/22 04:15:43;;;;;;;22.30;16.53;;;17.20;99.90;;;;;;5054623;28;20214;-61
2021/08/22 04:18:10;;;;;;;23.73;17.63;;;17.20;99.90;;;;;;5054920;28;20209;-61
2021/08/22 04:20:37;;;;;;;23.37;18.43;;;17.30;99.90;;;;;;5054374;28;20236;-61
2021/08/22 04:23:05;;;;;;;20.77;16.97;;;17.20;99.90;;;;;;5054359;28;20264;-61
2021/08/22 04:25:31;;;;;;;23.10;17.00;;;17.20;99.90;;;;;;5054173;28;20213;-61
2021/08/22 04:27:59;;;;;;;23.17;17.30;;;17.20;99.90;;;;;;5054483;28;20209;-61
2021/08/22 04:30:26;;;;;;;23.47;17.07;;;17.20;99.90;;;;;;5054172;28;20217;-61
2021/08/22 04:32:52;;;;;;;21.87;16.93;;;17.20;99.90;;;;;;5054211;28;20234;-62
2021/08/22 04:35:19;;;;;;;22.33;17.13;;;17.20;99.90;;;;;;5054241;28;20259;-61
2021/08/22 04:37:46;;;;;;;24.37;17.27;;;17.20;99.90;;;;;;5054103;28;20262;-61
2021/08/22 04:40:14;;;;;;;21.97;16.90;;;17.20;99.90;;;;;;5054403;28;20201;-61
2021/08/22 04:42:41;;;;;;;22.53;16.80;;;17.30;99.90;;;;;;5053001;28;20295;-60
2021/08/22 04:45:08;;;;;;;23.40;17.37;;;17.20;99.90;;;;;;5054088;28;20263;-60
2021/08/22 04:47:35;;;;;;;23.17;17.40;;;17.20;99.90;;;;;;5054082;28;20256;-61
2021/08/22 04:50:02;;;;;;;25.13;17.87;;;17.20;99.90;;;;;;5054051;28;20252;-61
2021/08/22 04:52:28;;;;;;;24.07;18.57;;;17.20;99.90;;;;;;5053610;28;20689;-61
2021/08/22 04:54:55;;;;;;;24.30;17.87;;;17.20;99.90;;;;;;5053766;28;20686;-61
2021/08/22 04:57:23;;;;;;;25.17;18.73;;;17.20;99.90;;;;;;5053887;28;20209;-59
2021/08/22 04:59:49;;;;;;;25.33;18.87;;;17.20;99.90;;;;;;5054076;28;20621;-61
2021/08/22 05:02:16;;;;;;;25.63;19.27;;;17.20;99.90;;;;;;5053640;28;20271;-62
2021/08/22 05:04:42;;;;;;;27.30;18.63;;;17.20;99.90;;;;;;5053662;28;20671;-62
2021/08/22 05:07:09;;;;;;;24.43;18.13;;;17.20;99.90;;;;;;5053953;28;20263;-61
2021/08/22 05:09:36;;;;;;;24.97;17.87;;;17.20;99.90;;;;;;5053890;28;20583;-62
2021/08/22 05:12:03;;;;;;;25.00;18.83;;;17.30;99.90;;;;;;5053494;28;20225;-62
2021/08/22 05:14:33;;;;;;;26.43;19.13;;;17.30;99.90;;;;;;5053508;28;20202;-61
2021/08/22 05:17:00;;;;;;;26.67;18.97;;;17.30;99.90;;;;;;5053822;28;20573;-61
2021/08/22 05:19:27;;;;;;;27.00;18.53;;;17.30;99.90;;;;;;5053494;28;20210;-62
2021/08/22 05:21:54;;;;;;;23.87;18.67;;;17.30;99.90;;;;;;5053456;28;20226;-61
2021/08/22 05:24:21;;;;;;;24.93;18.93;;;17.30;99.90;;;;;;5053193;28;20662;-60
2021/08/22 05:26:48;;;;;;;26.77;19.20;;;17.30;99.90;;;;;;5053378;28;20205;-61
2021/08/22 05:29:14;;;;;;;25.10;18.63;;;17.30;99.90;;;;;;5053385;28;20210;-59
2021/08/22 05:31:42;;;;;;;23.80;17.70;;;17.30;99.90;;;;;;5053005;28;20237;-61
2021/08/22 05:34:09;;;;;;;23.00;18.87;;;17.30;99.90;;;;;;5053026;28;20239;-61
2021/08/22 05:36:37;;;;;;;23.47;17.83;;;17.30;99.90;;;;;;5053556;28;20205;-61
2021/08/22 05:39:04;;;;;;;22.10;16.97;;;17.30;99.90;;;;;;5053263;28;20296;-61
2021/08/22 05:41:31;;;;;;;23.53;18.60;;;17.30;99.90;;;;;;5052803;28;20222;-61
2021/08/22 05:43:58;;;;;;;21.87;17.23;;;17.40;99.90;;;;;;5053000;28;20206;-60
2021/08/22 05:46:25;;;;;;;22.60;17.07;;;17.40;99.90;;;;;;5052703;28;20201;-60
2021/08/22 05:48:52;;;;;;;22.00;17.00;;;17.40;99.90;;;;;;5053137;28;20210;-61
2021/08/22 05:51:21;;;;;;;23.23;17.23;;;17.40;90.70;;;;;;5053011;28;20233;-61
2021/08/22 05:53:49;;;;;;;24.87;17.50;;;17.40;56.20;;;;;;5052478;28;20206;-60
2021/08/22 05:56:17;;;;;;;25.63;18.90;;;17.40;26.10;;;;;;5052827;28;20206;-62
2021/08/22 05:58:44;;;;;;;25.10;18.90;;;17.40;37.90;;;;;;5052906;28;20217;-62
2021/08/22 06:01:10;;;;;;;28.63;20.10;;;17.30;39.90;;;;;;5052515;28;20771;-61
2021/08/22 06:03:37;;;;;;;23.87;19.07;;;17.30;27.80;;;;;;5052905;28;20201;-61
2021/08/22 06:06:07;;;;;;;25.03;19.00;;;17.40;15.70;;;;;;5052642;28;20263;-62
2021/08/22 06:08:34;;;;;;;23.13;17.87;;;17.40;16.60;;;;;;5052959;28;20214;-61
2021/08/22 06:11:01;;;;;;;24.77;17.90;;;17.40;8.70;;;;;;5041929;28;20256;-61
2021/08/22 06:13:28;;;;;;;25.87;18.23;;;17.50;1.50;;;;;;5051606;28;20226;-57
2021/08/22 06:15:54;;;;;;;26.10;18.60;;;17.50;1.00;;;;;;5052497;28;20209;-60
2021/08/22 06:18:21;;;;;;;23.73;17.40;;;17.50;1.00;;;;;;5052422;28;20255;-60
2021/08/22 06:20:48;;;;;;;23.73;17.20;;;17.60;1.00;;;;;;5052267;28;20617;-60
2021/08/22 06:23:16;;;;;;;22.10;16.60;;;17.60;1.00;;;;;;5052285;28;20198;-60
2021/08/22 06:25:43;;;;;;;23.83;17.70;;;17.60;1.00;;;;;;5052415;28;20202;-60
2021/08/22 06:28:09;;;;;;;25.83;17.63;;;17.60;1.00;;;;;;5047708;28;20210;-62
2021/08/22 06:30:36;;;;;;;27.90;16.17;;;17.60;1.00;;;;;;5051489;28;20275;-62
2021/08/22 06:33:03;;;;;;;22.17;16.93;;;17.70;1.00;;;;;;5051481;28;20714;-62
2021/08/22 06:35:29;;;;;;;23.63;16.67;;;17.70;1.00;;;;;;5051724;28;20263;-62
2021/08/22 06:37:56;;;;;;;21.97;16.63;;;17.80;1.00;;;;;;5051421;28;20213;-62
2021/08/22 06:40:25;;;;;;;21.23;15.37;;;17.80;1.00;;;;;;5051530;28;20252;-62
2021/08/22 06:42:51;;;;;;;24.77;16.63;;;17.80;99.90;;;;;;5051639;28;20225;-62
2021/08/22 06:45:18;;;;;;;23.83;16.53;;;17.80;1.00;;;;;;5051536;28;20205;-62
2021/08/22 06:47:46;;;;;;;25.53;18.07;;;17.90;99.90;;;;;;5051720;28;20260;-62
2021/08/22 06:50:13;;;;;;;22.73;17.33;;;17.90;99.90;;;;;;5051431;28;20210;-63
2021/08/22 06:52:40;;;;;;;24.73;16.83;;;18.00;99.90;;;;;;5051545;28;20226;-62
2021/08/22 06:55:07;;;;;;;28.13;18.33;;;18.00;99.90;;;;;;5051253;28;20634;-63
2021/08/22 06:57:35;;;;;;;22.70;17.50;;;18.10;99.90;;;;;;5051758;28;20205;-62
2021/08/22 07:00:02;;;;;;;24.43;17.03;;;18.10;99.90;;;;;;5051233;28;20248;-63
2021/08/22 07:02:29;;;;;;;22.27;16.67;;;18.10;90.50;;;;;;5051786;28;20279;-65
2021/08/22 07:04:55;;;;;;;22.13;16.27;;;18.10;1.00;;;;;;5050952;28;20221;-65
2021/08/22 07:07:22;;;;;;;26.20;17.93;;;18.00;99.90;;;;;;5053892;28;20213;-64
2021/08/22 07:09:49;;;;;;;27.50;19.33;;;17.90;99.90;;;;;;5054860;28;20703;-65
2021/08/22 07:12:15;;;;;;;27.57;17.70;;;17.90;99.90;;;;;;5055442;28;20241;-61
2021/08/22 07:14:44;;;;;;;24.60;17.83;;;17.90;99.90;;;;;;5055103;28;20669;-61
2021/08/22 07:17:13;;;;;;;22.97;17.63;;;17.80;64.80;;;;;;5055291;28;20205;-61
2021/08/22 07:19:40;;;;;;;27.53;19.00;;;17.80;99.90;;;;;;5055188;28;20221;-57
2021/08/22 07:22:06;;;;;;;29.17;19.87;;;17.80;99.90;;;;;;5055056;28;20225;-60
2021/08/22 07:24:33;;;;;;;28.40;19.47;;;17.80;99.90;;;;;;5054965;28;20247;-59
2021/08/22 07:26:59;;;;;;;23.93;17.60;;;17.80;99.90;;;;;;5055268;28;20217;-59
2021/08/22 07:29:26;;;;;;;28.37;19.70;;;17.90;99.90;;;;;;5054791;28;20210;-63
2021/08/22 07:31:54;;;;;;;27.00;20.47;;;18.00;99.90;;;;;;5055028;28;20229;-61
2021/08/22 07:34:21;;;;;;;25.83;20.43;;;18.00;99.90;;;;;;5054712;28;20643;-61
2021/08/22 07:36:47;;;;;;;28.27;22.53;;;17.90;1.00;;;;;;5054695;28;20251;-60
2021/08/22 07:39:14;;;;;;;27.53;21.37;;;17.90;99.90;;;;;;5055792;28;20307;-61
2021/08/22 07:41:40;;;;;;;26.30;19.97;;;18.10;99.90;;;;;;5058666;28;20722;-63
2021/08/22 07:44:07;;;;;;;27.53;19.17;;;18.20;99.90;;;;;;5057261;28;20202;-64
2021/08/22 07:46:34;;;;;;;23.57;17.73;;;18.20;1.00;;;;;;5059145;28;20213;-66
2021/08/22 07:49:02;;;;;;;22.77;18.50;;;18.30;99.90;;;;;;5059936;28;20209;-64
2021/08/22 07:51:28;;;;;;;22.50;17.87;;;18.30;99.90;;;;;;5057764;28;20271;-62
2021/08/22 07:53:55;;;;;;;20.87;17.10;;;18.40;1.00;;;;;;5058760;28;20279;-62
2021/08/22 07:56:22;;;;;;;19.93;16.67;;;18.50;1.00;;;;;;5060360;28;20206;-66
2021/08/22 07:58:48;;;;;;;18.33;15.33;;;18.70;99.90;;;;;;5059524;28;20213;-63
2021/08/22 08:01:15;;;;;;;22.13;16.10;;;18.90;1.00;;;;;;5058103;28;20661;-62
2021/08/22 08:03:42;;;;;;;21.00;15.43;;;19.10;1.00;;;;;;5055482;28;20206;-67
2021/08/22 08:06:10;;;;;;;17.60;14.03;;;19.10;42.30;;;;;;5055147;28;20271;-61
2021/08/22 08:08:37;;;;;;;16.03;14.00;;;19.10;1.00;;;;;;5055252;28;20620;-62
2021/08/22 08:11:04;;;;;;;17.00;13.70;;;19.00;99.90;;;;;;5054660;28;20218;-62
2021/08/22 08:13:30;;;;;;;15.73;13.33;;;19.00;99.90;;;;;;5055081;28;20234;-62
2021/08/22 08:15:57;;;;;;;15.70;13.30;;;19.00;1.00;;;;;;5056984;28;20206;-63
2021/08/22 08:18:24;;;;;;;15.73;13.17;;;19.00;1.00;;;;;;5055926;28;20271;-63
2021/08/22 08:20:50;;;;;;;15.53;12.40;;;19.00;99.90;;;;;;5054797;28;20213;-63
2021/08/22 08:23:18;;;;;;;13.27;11.40;;;19.10;99.90;;;;;;5054751;28;20202;-63
2021/08/22 08:25:45;;;;;;;16.03;11.77;;;19.00;1.00;;;;;;5053697;28;20283;-64
2021/08/22 08:28:11;;;;;;;13.20;10.17;;;19.10;99.90;;;;;;5054316;28;20205;-63
2021/08/22 08:30:38;;;;;;;12.60;10.73;;;19.00;1.00;;;;;;5054262;28;20263;-63
2021/08/22 08:33:05;;;;;;;10.83;9.73;;;19.00;99.90;;;;;;5053677;28;20283;-64
2021/08/22 08:35:31;;;;;;;14.33;10.60;;;18.90;1.00;;;;;;5053951;28;20280;-63
2021/08/22 08:37:58;;;;;;;13.47;8.50;;;19.00;99.90;;;;;;5054037;28;20270;-64
2021/08/22 08:40:26;;;;;;;9.30;8.17;;;19.00;99.90;;;;;;5053561;28;20260;-64
2021/08/22 08:42:53;;;;;;;10.27;7.60;;;19.00;1.00;;;;;;5053750;28;20284;-64
2021/08/22 08:45:20;;;;;;;10.23;7.67;;;19.00;1.00;;;;;;5053605;28;20201;-64
2021/08/22 08:47:50;;;;;;;10.37;8.07;;;19.00;1.00;;;;;;5053504;28;20271;-64
2021/08/22 08:50:20;;;;;;;12.37;7.57;;;19.00;99.90;;;;;;5053896;28;20205;-65
2021/08/22 08:52:51;;;;;;;10.00;7.00;;;19.00;1.00;;;;;;5053771;28;20275;-62
2021/08/22 08:55:20;;;;;;;7.93;6.30;;;19.10;1.00;;;;;;5053633;28;20255;-62
2021/08/22 08:57:48;;;;;;;8.93;7.30;;;19.10;1.00;;;;;;5053274;28;20275;-62
2021/08/22 09:00:15;;;;;;;8.23;6.70;;;19.20;99.90;;;;;;5051259;28;20261;-62
2021/08/22 09:02:42;;;;;;;10.27;7.50;;;19.10;76.60;;;;;;5051870;28;20221;-61
2021/08/22 09:05:34;;;;;;;9.23;6.87;;;19.10;99.90;;;;;;5053606;28;20201;-63
2021/08/22 09:08:53;;;;;;;9.40;7.50;;;19.20;1.00;;;;;;5053429;28;20213;-63
2021/08/22 09:11:56;;;;;;;8.60;5.90;;;19.50;99.90;;;;;;5033684;28;20227;-66
2021/08/22 09:15:02;;;;;;;8.83;5.77;;;19.70;99.90;;;;;;5032659;28;20287;-63
2021/08/22 09:18:06;;;;;;;7.83;6.60;;;19.90;99.90;;;;;;5033744;28;20570;-65
2021/08/22 09:21:20;;;;;;;11.03;6.80;;;19.70;99.90;;;;;;5033583;28;20691;-66
2021/08/22 09:24:27;;;;;;;8.83;7.13;;;19.70;1.00;;;;;;5015828;28;20267;-64
2021/08/22 09:27:31;;;;;;;11.77;7.03;;;19.80;1.00;;;;;;5033369;28;20253;-64
2021/08/22 09:30:36;;;;;;;13.63;8.93;;;19.90;99.90;;;;;;5049720;28;20213;-64
2021/08/22 09:33:55;;;;;;;11.33;8.53;;;19.80;99.90;;;;;;5052444;28;20233;-63
2021/08/22 09:36:58;;;;;;;10.17;7.77;;;19.70;99.90;;;;;;5010897;28;20242;-65
2021/08/22 09:40:01;;;;;;;10.47;7.37;;;19.70;96.90;;;;;;5010899;28;20214;-66
2021/08/22 09:43:22;;;;;;;10.53;7.77;;;19.40;53.40;;;;;;5049783;28;20225;-65
2021/08/22 09:46:28;;;;;;;10.90;8.10;;;19.40;77.90;;;;;;5051145;28;20259;-64
2021/08/22 09:49:46;;;;;;;9.63;8.17;;;19.30;99.90;;;;;;5053009;28;20263;-61
2021/08/22 09:53:04;;;;;;;10.93;7.73;;;19.40;1.00;;;;;;5052299;28;20602;-61
2021/08/22 09:56:10;;;;;;;12.90;7.80;;;19.50;99.90;;;;;;5052456;28;20209;-61
2021/08/22 09:59:10;;;;;;;10.60;8.00;;;19.50;1.00;;;;;;5052157;28;20209;-61
2021/08/22 10:02:12;;;;;;;8.07;6.87;;;19.40;99.40;;;;;;5052729;28;20229;-61
2021/08/22 10:05:14;;;;;;;9.13;6.83;;;19.50;99.90;;;;;;5049604;28;20259;-61
2021/08/22 10:08:16;;;;;;;10.53;7.70;;;19.70;99.90;;;;;;5052669;28;20274;-61
2021/08/22 10:10:45;;;;;;;10.00;8.57;;;19.90;99.90;;;;;;5010406;28;20206;-61
2021/08/22 10:13:12;;;;;;;11.87;8.77;;;20.10;1.00;;;;;;5044757;28;20230;-61
2021/08/22 10:15:42;;;;;;;10.37;7.33;;;20.00;1.00;;;;;;5052490;28;20263;-61
2021/08/22 10:18:10;;;;;;;16.20;11.17;;;19.90;1.00;;;;;;5052321;28;20296;-61
2021/08/22 10:20:45;;;;;;;9.77;7.13;;;19.80;29.80;;;;;;5051777;28;20201;-63
2021/08/22 10:23:52;;;;;;;7.03;6.20;;;19.50;1.00;;;;;;5052210;28;20265;-62
2021/08/22 10:26:48;;;;;;;10.13;6.90;;;19.40;1.00;;;;;;5052309;28;20205;-62
2021/08/22 10:29:17;;;;;;;16.47;8.80;;;19.30;99.90;;;;;;5052243;28;20205;-62
2021/08/22 10:32:03;;;;;;;10.83;7.23;;;19.40;99.90;;;;;;5051910;28;20233;-62
2021/08/22 10:34:30;;;;;;;8.50;6.73;;;19.50;1.00;;;;;;5051999;28;20225;-61
2021/08/22 10:36:58;;;;;;;8.80;6.80;;;19.70;1.00;;;;;;5051982;28;20201;-61
2021/08/22 10:39:30;;;;;;;7.80;7.00;;;19.90;1.00;;;;;;5052196;28;20210;-60
2021/08/22 10:41:57;;;;;;;10.40;8.07;;;20.10;1.00;;;;;;5051695;28;20232;-60
2021/08/22 10:44:41;;;;;;;7.50;6.70;;;20.20;99.90;;;;;;5051467;28;20667;-60
2021/08/22 10:47:08;;;;;;;8.67;6.43;;;20.40;99.90;;;;;;5052109;28;20200;-61
2021/08/22 10:50:06;;;;;;;10.47;6.80;;;20.60;99.90;;;;;;5051975;28;20240;-61
2021/08/22 10:52:34;;;;;;;8.70;5.20;;;20.70;99.90;;;;;;5010038;28;20222;-62
2021/08/22 10:55:38;;;;;;;6.63;4.67;;;20.90;1.00;;;;;;5042000;28;20233;-62
2021/08/22 10:58:05;;;;;;;5.77;4.00;;;21.20;99.90;;;;;;5046078;28;20272;-62
2021/08/22 11:00:34;;;;;;;5.83;3.90;;;21.70;48.20;;;;;;5051971;28;20206;-62
2021/08/22 11:03:01;;;;;;;5.60;4.77;;;21.90;1.00;;;;;;5051785;28;20229;-63
2021/08/22 11:05:30;;;;;;;5.17;3.90;;;22.10;97.20;;;;;;5051548;28;20213;-63
2021/08/22 11:08:12;;;;;;;5.77;4.53;;;22.20;1.00;;;;;;5051661;28;20751;-63
2021/08/22 11:10:39;;;;;;;4.67;3.80;;;22.00;1.00;;;;;;5051640;28;20678;-64
2021/08/22 11:13:06;;;;;;;4.60;3.57;;;22.10;1.00;;;;;;5051534;28;20272;-63
2021/08/22 11:15:33;;;;;;;7.10;3.63;;;22.10;1.00;;;;;;5049924;28;20334;-63
2021/08/22 11:18:01;;;;;;;4.87;3.50;;;21.80;1.00;;;;;;5051783;28;20213;-63
2021/08/22 11:20:30;;;;;;;5.20;3.50;;;21.40;1.00;;;;;;5051694;28;20235;-63
2021/08/22 11:23:06;;;;;;;5.07;3.40;;;21.20;1.00;;;;;;5051606;28;20313;-62
2021/08/22 11:25:33;;;;;;;4.57;3.40;;;21.20;1.00;;;;;;5051247;28;20743;-63
2021/08/22 11:28:05;;;;;;;5.23;3.70;;;21.20;1.00;;;;;;5051455;28;20271;-63
2021/08/22 11:30:31;;;;;;;8.87;3.80;;;21.20;1.00;;;;;;5051399;28;20217;-63
2021/08/22 11:32:58;;;;;;;4.47;3.37;;;21.20;1.00;;;;;;5051491;28;20291;-63
2021/08/22 11:35:26;;;;;;;4.33;3.53;;;21.20;1.00;;;;;;5051431;28;20216;-63
2021/08/22 11:37:53;;;;;;;4.47;3.20;;;21.10;1.00;;;;;;5051318;28;20209;-63
2021/08/22 11:40:23;;;;;;;3.27;2.97;;;21.00;99.90;;;;;;5051557;28;20670;-63
2021/08/22 11:42:52;;;;;;;4.97;3.30;;;21.00;1.00;;;;;;5050959;28;20725;-63
2021/08/22 11:45:21;;;;;;;3.70;2.87;;;21.00;1.00;;;;;;5051436;28;20244;-63
2021/08/22 11:47:49;;;;;;;5.30;3.30;;;21.20;1.00;;;;;;5051302;28;20255;-63
2021/08/22 11:50:17;;;;;;;5.37;3.17;;;21.50;1.00;;;;;;5051296;28;20209;-63
2021/08/22 11:52:45;;;;;;;6.53;3.70;;;21.70;99.90;;;;;;5052944;28;20230;-63
2021/08/22 11:55:14;;;;;;;8.60;3.70;;;21.90;99.90;;;;;;5054559;28;20222;-62
2021/08/22 11:57:42;;;;;;;4.00;3.27;;;21.90;99.90;;;;;;5055160;28;20210;-63
2021/08/22 12:00:11;;;;;;;7.20;3.63;;;21.90;99.90;;;;;;5054983;28;20209;-63
2021/08/22 12:02:38;;;;;;;6.23;3.20;;;21.90;99.90;;;;;;5054935;28;20763;-63
2021/08/22 12:05:15;;;;;;;6.03;3.03;;;21.70;99.90;;;;;;5054865;28;20620;-63
2021/08/22 12:07:43;;;;;;;8.07;3.37;;;21.60;99.90;;;;;;5054546;28;20205;-63
2021/08/22 12:10:21;;;;;;;6.53;2.90;;;21.70;99.90;;;;;;5054500;28;20674;-63
2021/08/22 12:12:49;;;;;;;6.40;3.10;;;22.00;99.90;;;;;;5054794;28;20226;-62
2021/08/22 12:15:16;;;;;;;5.47;2.87;;;22.30;99.90;;;;;;5054486;28;20283;-63
2021/08/22 12:17:43;;;;;;;4.50;2.97;;;22.40;99.90;;;;;;5054562;28;20221;-61
2021/08/22 12:20:18;;;;;;;4.43;3.13;;;22.60;99.90;;;;;;5054394;28;20206;-62
2021/08/22 12:22:59;;;;;;;4.77;2.80;;;22.80;99.90;;;;;;5054625;28;20229;-62
2021/08/22 12:25:26;;;;;;;4.57;2.80;;;23.10;99.90;;;;;;5054431;28;20634;-62
2021/08/22 12:27:54;;;;;;;4.77;2.90;;;23.20;99.90;;;;;;5054365;28;20256;-63
2021/08/22 12:30:20;;;;;;;6.10;3.30;;;23.10;99.90;;;;;;5054082;28;20217;-62
2021/08/22 12:32:47;;;;;;;5.53;2.90;;;23.00;99.90;;;;;;5053891;28;20234;-61
2021/08/22 12:35:14;;;;;;;4.63;3.00;;;23.10;99.90;;;;;;5053940;28;20653;-62
2021/08/22 12:37:40;;;;;;;4.73;3.00;;;23.10;99.90;;;;;;5053673;28;20582;-61
2021/08/22 12:40:10;;;;;;;5.87;2.80;;;23.20;99.90;;;;;;5053964;28;20251;-63
2021/08/22 12:42:40;;;;;;;4.37;2.43;;;23.30;99.90;;;;;;5053633;28;20226;-63
2021/08/22 12:45:12;;;;;;;4.70;2.70;;;23.30;99.90;;;;;;5053680;28;20201;-63
2021/08/22 12:47:39;;;;;;;4.90;2.70;;;23.20;99.90;;;;;;5053917;28;20256;-63
2021/08/22 12:50:07;;;;;;;4.77;2.70;;;23.10;99.90;;;;;;5053819;28;20206;-62
2021/08/22 12:52:36;;;;;;;5.03;2.43;;;23.10;99.90;;;;;;5053615;28;20222;-62
2021/08/22 12:55:02;;;;;;;4.73;3.00;;;23.00;99.90;;;;;;5053436;28;20714;-62
2021/08/22 12:57:29;;;;;;;5.37;2.70;;;23.00;99.90;;;;;;5053597;28;20615;-62